TimeEDT,TemperatureF,Dew PointF,Humidity,Sea Level PressureIn,VisibilityMPH,Wind Direction,Wind SpeedMPH,Gust SpeedMPH,PrecipitationIn,Events,Conditions,WindDirDegrees,DateUTC
12:51 AM,59.0,55.9,90,29.67,10.0,NNW,5.8,-,N/A,,Scattered Clouds,330,2013-11-02 04:51:00
1:51 AM,57.0,52.0,83,29.65,10.0,NNW,6.9,-,N/A,,Partly Cloudy,340,2013-11-02 05:51:00
2:51 AM,55.9,46.0,69,29.65,10.0,North,4.6,-,N/A,,Mostly Cloudy,10,2013-11-02 06:51:00
3:51 AM,55.9,46.0,69,29.64,10.0,NE,3.5,-,N/A,,Mostly Cloudy,40,2013-11-02 07:51:00
4:51 AM,55.0,46.9,74,29.66,10.0,NNE,4.6,-,N/A,,Mostly Cloudy,30,2013-11-02 08:51:00
5:51 AM,52.0,46.9,83,29.65,10.0,North,6.9,-,N/A,,Mostly Cloudy,10,2013-11-02 09:51:00
6:51 AM,54.0,48.0,80,29.67,10.0,NNE,4.6,-,N/A,,Mostly Cloudy,20,2013-11-02 10:51:00
7:51 AM,55.0,48.9,80,29.69,10.0,Calm,Calm,-,N/A,,Mostly Cloudy,0,2013-11-02 11:51:00
8:51 AM,57.0,48.9,74,29.69,10.0,North,4.6,-,N/A,,Mostly Cloudy,350,2013-11-02 12:51:00
9:51 AM,57.9,48.9,72,29.69,10.0,ESE,3.5,-,N/A,,Mostly Cloudy,110,2013-11-02 13:51:00
10:51 AM,60.1,48.0,64,29.68,10.0,Calm,Calm,-,N/A,,Mostly Cloudy,0,2013-11-02 14:51:00
11:51 AM,64.0,46.9,54,29.66,10.0,Calm,Calm,-,N/A,,Mostly Cloudy,0,2013-11-02 15:51:00
12:51 PM,66.0,45.0,47,29.66,10.0,SSE,4.6,-,N/A,,Scattered Clouds,150,2013-11-02 16:51:00
1:51 PM,66.9,42.1,40,29.64,10.0,Variable,5.8,-,N/A,,Scattered Clouds,0,2013-11-02 17:51:00
2:51 PM,66.9,44.1,44,29.63,10.0,SE,5.8,-,N/A,,Mostly Cloudy,140,2013-11-02 18:51:00
3:51 PM,66.9,43.0,42,29.63,10.0,West,11.5,-,N/A,,Mostly Cloudy,270,2013-11-02 19:51:00
4:51 PM,64.9,43.0,45,29.64,10.0,WNW,13.8,25.3,0.00,,Mostly Cloudy,290,2013-11-02 20:51:00
5:51 PM,63.0,44.1,50,29.68,10.0,WNW,11.5,31.1,N/A,,Mostly Cloudy,290,2013-11-02 21:51:00
6:51 PM,61.0,41.0,48,29.70,10.0,WNW,9.2,16.1,N/A,,Scattered Clouds,290,2013-11-02 22:51:00
7:51 PM,60.1,39.9,47,29.72,10.0,WNW,9.2,-,N/A,,Scattered Clouds,300,2013-11-02 23:51:00
8:51 PM,57.9,39.0,49,29.75,10.0,West,9.2,21.9,N/A,,Scattered Clouds,270,2013-11-03 00:51:00
9:51 PM,55.9,39.0,53,29.77,10.0,West,8.1,-,N/A,,Scattered Clouds,280,2013-11-03 01:51:00
10:51 PM,54.0,39.0,57,29.79,10.0,West,4.6,-,N/A,,Scattered Clouds,280,2013-11-03 02:51:00
11:51 PM,54.0,39.0,57,29.79,10.0,WNW,5.8,-,N/A,,Mostly Cloudy,290,2013-11-03 03:51:00